Time;durP1;ratioP1;P1;durP2;ratioP2;P2;SDS_P1;SDS_P2;PMS_P1;PMS_P2;Temp;Humidity;BMP_temperature;BMP_pressure;BME280_temperature;BME280_humidity;BME280_pressure;Samples;Min_cycle;Max_cycle;Signal;HPM_P1;HPM_P2
2024/01/16 00:02:08;;;;;;;;;;;2.00;99.90;;;;;;5016344;28;19921;-83
2024/01/16 00:04:35;;;;;;;;;;;2.40;99.90;;;;;;5015107;28;19933;-84
2024/01/16 00:07:01;;;;;;;;;;;-1.40;99.90;;;;;;5013200;28;19921;-83
2024/01/16 00:09:27;;;;;;;;;;;1.10;99.90;;;;;;5030983;28;19924;-83
2024/01/16 00:11:52;;;;;;;;;;;0.40;99.90;;;;;;4995116;28;19929;-83
2024/01/16 00:14:18;;;;;;;;;;;0.40;99.90;;;;;;4998817;28;20019;-83
2024/01/16 00:16:45;;;;;;;;;;;0.50;99.90;;;;;;5031093;28;20013;-83
2024/01/16 00:19:11;;;;;;;;;;;0.40;99.90;;;;;;5031429;28;19921;-83
2024/01/16 00:21:41;;;;;;;;;;;2.10;99.90;;;;;;5030482;28;19921;-83
2024/01/16 00:24:07;;;;;;;;;;;0.20;99.90;;;;;;5013965;28;19928;-84
2024/01/16 00:26:32;;;;;;;;;;;0.20;99.90;;;;;;5011965;28;20015;-84
2024/01/16 00:28:58;;;;;;;;;;;0.20;99.90;;;;;;5031578;28;19953;-84
2024/01/16 00:31:24;;;;;;;;;;;2.00;99.90;;;;;;5014789;28;19928;-83
2024/01/16 00:33:49;;;;;;;;;;;0.10;99.90;;;;;;4999568;28;19925;-84
2024/01/16 00:36:15;;;;;;;;;;;2.00;99.90;;;;;;5015255;28;20075;-84
2024/01/16 00:38:40;;;;;;;;;;;0.00;99.90;;;;;;5016554;28;19921;-84
2024/01/16 00:41:06;;;;;;;;;;;0.40;99.90;;;;;;5029991;28;19961;-84
2024/01/16 00:43:32;;;;;;;;;;;1.60;99.90;;;;;;5006585;28;19922;-84
2024/01/16 00:45:58;;;;;;;;;;;-0.10;99.90;;;;;;5030484;28;19925;-84
2024/01/16 00:48:24;;;;;;;;;;;1.60;99.90;;;;;;5017906;28;19921;-84
2024/01/16 00:50:49;;;;;;;;;;;1.00;99.90;;;;;;5022068;28;19925;-84
2024/01/16 00:53:16;;;;;;;;;;;-0.10;99.90;;;;;;4995759;28;20036;-84
2024/01/16 00:55:42;;;;;;;;;;;1.80;99.90;;;;;;5008759;28;19921;-84
2024/01/16 00:58:08;;;;;;;;;;;-0.10;99.90;;;;;;5030741;28;19921;-84
2024/01/16 01:00:34;;;;;;;;;;;1.50;99.90;;;;;;5005986;28;20296;-84
2024/01/16 01:03:00;;;;;;;;;;;0.50;99.90;;;;;;5000513;28;19928;-84
2024/01/16 01:05:28;;;;;;;;;;;1.30;99.90;;;;;;5033362;28;19925;-84
2024/01/16 01:07:54;;;;;;;;;;;1.30;99.90;;;;;;5016571;28;20377;-84
2024/01/16 01:10:20;;;;;;;;;;;-0.10;99.90;;;;;;5007425;28;19921;-84
2024/01/16 01:12:45;;;;;;;;;;;1.80;99.90;;;;;;5015391;28;20395;-84
2024/01/16 01:15:11;;;;;;;;;;;1.40;99.90;;;;;;4999858;28;19968;-84
2024/01/16 01:17:37;;;;;;;;;;;-0.20;99.90;;;;;;5013952;28;19921;-84
2024/01/16 01:20:03;;;;;;;;;;;0.20;99.90;;;;;;5000386;28;19921;-84
2024/01/16 01:22:28;;;;;;;;;;;-0.20;99.90;;;;;;4998603;28;19921;-84
2024/01/16 01:24:54;;;;;;;;;;;1.70;99.90;;;;;;5025834;28;19929;-84
2024/01/16 01:27:20;;;;;;;;;;;0.20;99.90;;;;;;5013560;28;19964;-84
2024/01/16 01:29:46;;;;;;;;;;;0.60;99.90;;;;;;5018891;28;19929;-84
2024/01/16 01:32:11;;;;;;;;;;;1.80;99.90;;;;;;5016781;28;19980;-84
2024/01/16 01:34:38;;;;;;;;;;;1.80;99.90;;;;;;4999012;28;20349;-84
2024/01/16 01:37:03;;;;;;;;;;;0.70;99.90;;;;;;5000357;28;19921;-84
2024/01/16 01:39:30;;;;;;;;;;;1.50;99.90;;;;;;5033819;28;19971;-83
2024/01/16 01:41:55;;;;;;;;;;;-0.40;99.90;;;;;;5009431;28;19967;-84
2024/01/16 01:44:21;;;;;;;;;;;0.20;99.90;;;;;;4997289;28;19925;-86
2024/01/16 01:46:47;;;;;;;;;;;-0.10;99.90;;;;;;5004650;28;19929;-86
2024/01/16 01:49:13;;;;;;;;;;;-0.40;99.90;;;;;;5016339;28;19929;-86
2024/01/16 01:51:39;;;;;;;;;;;-0.40;99.90;;;;;;5034561;28;20293;-86
2024/01/16 01:54:05;;;;;;;;;;;-0.40;99.90;;;;;;4999008;28;19925;-86
2024/01/16 01:56:30;;;;;;;;;;;-0.40;99.90;;;;;;5018355;28;19921;-85
2024/01/16 01:58:56;;;;;;;;;;;-0.40;99.90;;;;;;5016456;28;19964;-86
2024/01/16 02:01:22;;;;;;;;;;;-0.50;99.90;;;;;;5014598;28;20388;-86
2024/01/16 02:03:49;;;;;;;;;;;-0.40;99.90;;;;;;5033261;28;19925;-85
2024/01/16 02:06:16;;;;;;;;;;;-0.50;99.90;;;;;;5007830;28;19925;-85
2024/01/16 02:08:42;;;;;;;;;;;-0.50;99.90;;;;;;5021505;28;19921;-86
2024/01/16 02:11:07;;;;;;;;;;;0.40;99.90;;;;;;5033044;28;19971;-86
2024/01/16 02:13:33;;;;;;;;;;;1.50;99.90;;;;;;5015483;28;20041;-86
2024/01/16 02:15:59;;;;;;;;;;;0.40;99.90;;;;;;5026782;28;19922;-86
2024/01/16 02:18:25;;;;;;;;;;;1.30;99.90;;;;;;5016407;28;19937;-86
2024/01/16 02:20:50;;;;;;;;;;;0.00;99.90;;;;;;4997565;28;19954;-86
2024/01/16 02:23:18;;;;;;;;;;;0.70;99.90;;;;;;5022750;28;20313;-86
2024/01/16 02:25:44;;;;;;;;;;;-0.50;99.90;;;;;;5013773;28;19925;-86
2024/01/16 02:28:10;;;;;;;;;;;-0.40;99.90;;;;;;5016605;28;20289;-86
2024/01/16 02:30:35;;;;;;;;;;;1.50;99.90;;;;;;5000873;28;19984;-87
2024/01/16 02:33:01;;;;;;;;;;;-0.50;99.90;;;;;;4998329;28;19987;-86
2024/01/16 02:35:26;;;;;;;;;;;-0.50;99.90;;;;;;5011671;28;20397;-86
2024/01/16 02:37:52;;;;;;;;;;;1.10;99.90;;;;;;4998390;28;19921;-86
2024/01/16 02:40:18;;;;;;;;;;;0.00;99.90;;;;;;5000792;28;19964;-86
2024/01/16 02:42:43;;;;;;;;;;;0.40;99.90;;;;;;5033483;28;20404;-86
2024/01/16 02:45:09;;;;;;;;;;;1.70;99.90;;;;;;5000101;28;19926;-86
2024/01/16 02:47:35;;;;;;;;;;;-0.40;99.90;;;;;;5002607;28;20293;-86
2024/01/16 02:50:01;;;;;;;;;;;-0.40;99.90;;;;;;4999460;28;19928;-86
2024/01/16 02:52:26;;;;;;;;;;;-0.30;99.90;;;;;;5000883;28;19925;-86
2024/01/16 02:54:52;;;;;;;;;;;0.50;99.90;;;;;;5016315;28;19969;-86
2024/01/16 02:57:18;;;;;;;;;;;1.50;99.90;;;;;;5010699;28;20269;-86
2024/01/16 02:59:43;;;;;;;;;;;1.80;99.90;;;;;;4992948;28;19921;-86
2024/01/16 03:02:09;;;;;;;;;;;1.30;99.90;;;;;;5014802;28;19925;-86
2024/01/16 03:04:35;;;;;;;;;;;0.40;99.90;;;;;;4997848;28;19933;-86
2024/01/16 03:07:01;;;;;;;;;;;0.50;99.90;;;;;;4999717;28;20000;-86
2024/01/16 03:09:26;;;;;;;;;;;0.40;99.90;;;;;;5031014;28;19980;-86
2024/01/16 03:11:52;;;;;;;;;;;-0.20;99.90;;;;;;4993747;28;20388;-86
2024/01/16 03:14:18;;;;;;;;;;;1.30;99.90;;;;;;5030062;28;19921;-87
2024/01/16 03:16:44;;;;;;;;;;;1.70;99.90;;;;;;5001067;28;19921;-86
2024/01/16 03:19:11;;;;;;;;;;;-0.50;99.90;;;;;;5013732;28;20385;-86
2024/01/16 03:21:37;;;;;;;;;;;-0.40;99.90;;;;;;5014957;28;19929;-86
2024/01/16 03:24:03;;;;;;;;;;;-0.20;99.90;;;;;;4999279;28;19928;-86
2024/01/16 03:26:29;;;;;;;;;;;-0.40;99.90;;;;;;4989517;28;19972;-86
2024/01/16 03:28:54;;;;;;;;;;;-0.40;99.90;;;;;;5013574;28;19925;-86
2024/01/16 03:31:21;;;;;;;;;;;1.10;99.90;;;;;;4993669;28;19921;-87
2024/01/16 03:33:46;;;;;;;;;;;-0.40;99.90;;;;;;4996811;28;19921;-86
2024/01/16 03:36:15;;;;;;;;;;;0.40;99.90;;;;;;5007208;28;20193;-86
2024/01/16 03:38:44;;;;;;;;;;;1.10;99.90;;;;;;5014394;28;19975;-86
2024/01/16 03:41:13;;;;;;;;;;;-0.50;99.90;;;;;;5018352;28;19922;-86
2024/01/16 03:43:39;;;;;;;;;;;-0.60;99.90;;;;;;5030358;28;21410;-86
2024/01/16 03:46:04;;;;;;;;;;;-0.60;99.90;;;;;;4992862;28;20047;-86
2024/01/16 03:48:30;;;;;;;;;;;1.30;99.90;;;;;;4997350;28;20395;-86
2024/01/16 03:50:56;;;;;;;;;;;1.30;99.90;;;;;;5027422;28;19979;-86
2024/01/16 03:53:22;;;;;;;;;;;-0.50;99.90;;;;;;5012531;28;19921;-86
2024/01/16 03:55:49;;;;;;;;;;;1.50;99.90;;;;;;5015037;28;20374;-85
2024/01/16 03:58:15;;;;;;;;;;;-0.60;99.90;;;;;;5013841;28;19948;-86
2024/01/16 04:00:41;;;;;;;;;;;1.20;99.90;;;;;;4995840;28;20347;-86
2024/01/16 04:03:07;;;;;;;;;;;-0.60;99.90;;;;;;5012079;28;19925;-86
2024/01/16 04:05:33;;;;;;;;;;;-0.70;99.90;;;;;;5009563;28;20439;-86
2024/01/16 04:07:59;;;;;;;;;;;-0.60;99.90;;;;;;5026196;28;19960;-88
2024/01/16 04:10:24;;;;;;;;;;;-0.60;99.90;;;;;;5025507;28;19925;-85
2024/01/16 04:12:50;;;;;;;;;;;-0.60;99.90;;;;;;5024163;28;19996;-85
2024/01/16 04:15:16;;;;;;;;;;;1.50;99.90;;;;;;5017481;28;19964;-86
2024/01/16 04:17:41;;;;;;;;;;;1.30;99.90;;;;;;5013332;28;19951;-86
2024/01/16 04:20:07;;;;;;;;;;;1.40;99.90;;;;;;5009363;28;20375;-86
2024/01/16 04:22:33;;;;;;;;;;;-0.50;99.90;;;;;;5022466;28;19924;-87
2024/01/16 04:24:58;;;;;;;;;;;-0.70;99.90;;;;;;5021392;28;19991;-88
2024/01/16 04:27:25;;;;;;;;;;;0.40;99.90;;;;;;5036908;28;20329;-87
2024/01/16 04:29:51;;;;;;;;;;;-1.20;99.90;;;;;;5023085;28;19921;-85
2024/01/16 04:32:16;;;;;;;;;;;-0.50;99.90;;;;;;5002870;28;19921;-85
2024/01/16 04:34:42;;;;;;;;;;;-0.50;99.90;;;;;;5004169;28;19927;-85
2024/01/16 04:37:08;;;;;;;;;;;1.50;99.90;;;;;;5019129;28;19921;-86
2024/01/16 04:39:33;;;;;;;;;;;-0.50;99.90;;;;;;5003937;28;19954;-86
2024/01/16 04:41:59;;;;;;;;;;;-0.50;99.90;;;;;;5029136;28;20371;-86
2024/01/16 04:44:24;;;;;;;;;;;-0.50;99.90;;;;;;5001263;28;19948;-86
2024/01/16 04:46:50;;;;;;;;;;;-0.10;99.90;;;;;;4986752;28;19928;-85
2024/01/16 04:49:15;;;;;;;;;;;0.10;99.90;;;;;;5003481;28;19922;-86
2024/01/16 04:51:41;;;;;;;;;;;0.00;99.90;;;;;;5003291;28;20025;-85
2024/01/16 04:54:07;;;;;;;;;;;-0.40;99.90;;;;;;5035745;28;19936;-85
2024/01/16 04:56:32;;;;;;;;;;;1.50;99.90;;;;;;5003178;28;20028;-86
2024/01/16 04:58:58;;;;;;;;;;;-0.50;99.90;;;;;;5029930;28;19928;-87
2024/01/16 05:01:25;;;;;;;;;;;1.50;99.90;;;;;;4998347;28;19944;-86
2024/01/16 05:03:50;;;;;;;;;;;-0.40;99.90;;;;;;5018286;28;19921;-86
2024/01/16 05:06:16;;;;;;;;;;;0.90;99.90;;;;;;5003027;28;19932;-86
2024/01/16 05:08:42;;;;;;;;;;;-0.50;99.90;;;;;;5002642;28;19921;-86
2024/01/16 05:11:07;;;;;;;;;;;-0.40;99.90;;;;;;5002791;28;19927;-86
2024/01/16 05:13:33;;;;;;;;;;;0.00;99.90;;;;;;5034085;28;19925;-86
2024/01/16 05:15:58;;;;;;;;;;;0.50;99.90;;;;;;5019152;28;19927;-87
2024/01/16 05:18:24;;;;;;;;;;;1.60;99.90;;;;;;5001677;28;19995;-86
2024/01/16 05:20:50;;;;;;;;;;;1.20;99.90;;;;;;5017879;28;19921;-87
2024/01/16 05:23:15;;;;;;;;;;;1.40;99.90;;;;;;4995609;28;19921;-87
2024/01/16 05:25:41;;;;;;;;;;;1.70;99.90;;;;;;5012854;28;20389;-87
2024/01/16 05:28:06;;;;;;;;;;;-0.40;99.90;;;;;;5016976;28;19921;-87
2024/01/16 05:30:33;;;;;;;;;;;0.40;99.90;;;;;;5009252;28;19996;-87
2024/01/16 05:33:00;;;;;;;;;;;1.60;99.90;;;;;;5012322;28;19921;-87
2024/01/16 05:35:29;;;;;;;;;;;1.30;99.90;;;;;;4992155;28;19921;-87
2024/01/16 05:37:56;;;;;;;;;;;-0.40;99.90;;;;;;5019235;28;19925;-86
2024/01/16 05:40:22;;;;;;;;;;;-0.50;99.90;;;;;;5018390;28;19971;-85
2024/01/16 05:42:50;;;;;;;;;;;-0.30;99.90;;;;;;5033913;28;19928;-85
2024/01/16 05:45:16;;;;;;;;;;;-0.40;99.90;;;;;;4998130;28;20393;-85
2024/01/16 05:47:42;;;;;;;;;;;-0.40;99.90;;;;;;5010143;28;19943;-86
2024/01/16 05:50:08;;;;;;;;;;;1.90;99.90;;;;;;5018502;28;19957;-86
2024/01/16 05:52:34;;;;;;;;;;;-0.40;99.90;;;;;;5034248;28;19925;-86
2024/01/16 05:55:00;;;;;;;;;;;-0.40;99.90;;;;;;5006167;28;19928;-86
2024/01/16 05:57:25;;;;;;;;;;;1.60;99.90;;;;;;5013919;28;19928;-86
2024/01/16 05:59:51;;;;;;;;;;;-0.40;99.90;;;;;;5031305;28;19929;-86
2024/01/16 06:02:17;;;;;;;;;;;-0.40;99.90;;;;;;5007641;28;19921;-86
2024/01/16 06:04:42;;;;;;;;;;;-0.50;99.90;;;;;;5000137;28;19929;-86
2024/01/16 06:07:08;;;;;;;;;;;1.00;99.90;;;;;;5035042;28;20401;-86
2024/01/16 06:09:38;;;;;;;;;;;0.50;99.90;;;;;;5011196;28;20019;-86
2024/01/16 06:12:03;;;;;;;;;;;-0.50;99.90;;;;;;5006647;28;20428;-86
2024/01/16 06:14:29;;;;;;;;;;;-0.40;99.90;;;;;;4997412;28;19921;-86
2024/01/16 06:16:55;;;;;;;;;;;-0.50;99.90;;;;;;4995828;28;19921;-86
2024/01/16 06:19:21;;;;;;;;;;;0.70;99.90;;;;;;4997977;28;20400;-86
2024/01/16 06:21:46;;;;;;;;;;;0.50;99.90;;;;;;4995407;28;20007;-86
2024/01/16 06:24:13;;;;;;;;;;;-0.40;99.90;;;;;;4996640;28;20016;-86
2024/01/16 06:26:38;;;;;;;;;;;-0.40;99.90;;;;;;4996835;28;20373;-86
2024/01/16 06:29:04;;;;;;;;;;;1.50;99.90;;;;;;5016835;28;19988;-86
2024/01/16 06:31:30;;;;;;;;;;;-0.40;99.90;;;;;;5031339;28;20284;-86
2024/01/16 06:33:55;;;;;;;;;;;-0.40;99.90;;;;;;5017857;28;19921;-86
2024/01/16 06:36:21;;;;;;;;;;;1.20;99.90;;;;;;5005224;28;19922;-86
2024/01/16 06:38:47;;;;;;;;;;;-0.40;99.90;;;;;;5018483;28;19928;-87
2024/01/16 06:41:12;;;;;;;;;;;1.50;99.90;;;;;;5013779;28;19964;-87
2024/01/16 06:43:39;;;;;;;;;;;-0.20;99.90;;;;;;4993880;28;20282;-87
2024/01/16 06:46:05;;;;;;;;;;;1.10;99.90;;;;;;5033174;28;19929;-85
2024/01/16 06:48:31;;;;;;;;;;;1.50;99.90;;;;;;4997719;28;19921;-87
2024/01/16 06:50:56;;;;;;;;;;;0.80;99.90;;;;;;5028633;28;19944;-87
2024/01/16 06:53:22;;;;;;;;;;;1.50;99.90;;;;;;5017731;28;19979;-86
2024/01/16 06:55:48;;;;;;;;;;;1.60;99.90;;;;;;4999777;28;20330;-87
2024/01/16 06:58:14;;;;;;;;;;;1.50;99.90;;;;;;5017890;28;19921;-87
2024/01/16 07:00:41;;;;;;;;;;;0.10;99.90;;;;;;5012379;28;19928;-86
2024/01/16 07:03:07;;;;;;;;;;;-0.40;99.90;;;;;;5004367;28;19921;-86
2024/01/16 07:05:32;;;;;;;;;;;1.00;99.90;;;;;;5006784;28;19925;-86
2024/01/16 07:07:58;;;;;;;;;;;0.10;99.90;;;;;;5018089;28;20025;-86
2024/01/16 07:10:24;;;;;;;;;;;-0.40;99.90;;;;;;5001357;28;19921;-85
2024/01/16 07:12:51;;;;;;;;;;;-0.40;99.90;;;;;;5018479;28;19968;-87
2024/01/16 07:15:18;;;;;;;;;;;-0.40;99.90;;;;;;5001196;28;19921;-87
2024/01/16 07:17:43;;;;;;;;;;;0.40;99.90;;;;;;5000580;28;19921;-86
2024/01/16 07:20:09;;;;;;;;;;;-0.40;99.90;;;;;;5000352;28;19944;-87
2024/01/16 07:22:36;;;;;;;;;;;-0.30;99.90;;;;;;5016589;28;19921;-86
2024/01/16 07:25:02;;;;;;;;;;;-0.20;99.90;;;;;;5032621;28;20426;-87
2024/01/16 07:27:27;;;;;;;;;;;-0.30;99.90;;;;;;5016605;28;19980;-87
2024/01/16 07:29:53;;;;;;;;;;;0.20;99.90;;;;;;5016456;28;19996;-86
2024/01/16 07:32:18;;;;;;;;;;;-0.40;99.90;;;;;;4999487;28;19921;-86
2024/01/16 07:34:44;;;;;;;;;;;1.50;99.90;;;;;;5014995;28;19960;-85
2024/01/16 07:37:10;;;;;;;;;;;0.70;99.90;;;;;;5013333;28;19929;-84
2024/01/16 07:39:35;;;;;;;;;;;-0.30;99.90;;;;;;5036999;28;19961;-87
2024/01/16 07:42:01;;;;;;;;;;;-0.20;99.90;;;;;;5009742;28;19921;-86
2024/01/16 07:44:26;;;;;;;;;;;-0.20;99.90;;;;;;4998746;28;19922;-85
2024/01/16 07:46:52;;;;;;;;;;;0.40;99.90;;;;;;5001281;28;20024;-86
2024/01/16 07:49:18;;;;;;;;;;;0.60;99.90;;;;;;5017536;28;19971;-85
2024/01/16 07:51:43;;;;;;;;;;;1.80;99.90;;;;;;5001117;28;19925;-86
2024/01/16 07:54:09;;;;;;;;;;;0.70;99.90;;;;;;5004177;28;19922;-85
2024/01/16 07:56:36;;;;;;;;;;;-0.10;99.90;;;;;;5020367;28;20391;-85
2024/01/16 07:59:02;;;;;;;;;;;-0.10;99.90;;;;;;5015450;28;19959;-84
2024/01/16 08:01:30;;;;;;;;;;;1.80;99.90;;;;;;4993083;28;19922;-85
2024/01/16 08:03:56;;;;;;;;;;;0.00;99.90;;;;;;5003886;28;19967;-86
2024/01/16 08:06:22;;;;;;;;;;;0.00;99.90;;;;;;5017371;28;20513;-85
2024/01/16 08:08:48;;;;;;;;;;;1.50;99.90;;;;;;5017099;28;19952;-86
2024/01/16 08:11:14;;;;;;;;;;;1.40;99.90;;;;;;5010370;28;20382;-86
2024/01/16 08:13:40;;;;;;;;;;;0.70;99.90;;;;;;5017920;28;19921;-86
2024/01/16 08:16:06;;;;;;;;;;;1.30;99.90;;;;;;5019709;28;20399;-87
2024/01/16 08:18:31;;;;;;;;;;;2.10;99.90;;;;;;5037166;28;19987;-85
2024/01/16 08:20:57;;;;;;;;;;;1.70;99.90;;;;;;5020259;28;19928;-86
2024/01/16 08:23:23;;;;;;;;;;;1.80;99.90;;;;;;5000861;28;19921;-86
2024/01/16 08:25:49;;;;;;;;;;;1.20;99.90;;;;;;4984542;28;19980;-88
2024/01/16 08:28:14;;;;;;;;;;;0.00;99.90;;;;;;4984974;28;19926;-86
2024/01/16 08:30:40;;;;;;;;;;;1.90;99.90;;;;;;5016990;28;19921;-86
2024/01/16 08:33:07;;;;;;;;;;;2.00;99.90;;;;;;5003057;28;19964;-85
2024/01/16 08:35:33;;;;;;;;;;;2.20;99.90;;;;;;5018674;28;19921;-87
2024/01/16 08:37:58;;;;;;;;;;;0.00;99.90;;;;;;5022072;28;20462;-86
2024/01/16 08:40:24;;;;;;;;;;;1.40;99.90;;;;;;5003407;28;19925;-87
2024/01/16 08:42:54;;;;;;;;;;;0.10;99.90;;;;;;5020412;28;19921;-86
2024/01/16 08:45:20;;;;;;;;;;;1.30;99.90;;;;;;5002044;28;19963;-87
2024/01/16 08:47:46;;;;;;;;;;;0.10;99.90;;;;;;5030924;28;19921;-86
2024/01/16 08:50:12;;;;;;;;;;;1.20;99.90;;;;;;5017796;28;20015;-87
2024/01/16 08:52:37;;;;;;;;;;;1.30;99.90;;;;;;5035579;28;19991;-86
2024/01/16 08:55:03;;;;;;;;;;;0.10;99.90;;;;;;5036334;28;19928;-86
2024/01/16 08:57:29;;;;;;;;;;;0.20;99.90;;;;;;5003223;28;20380;-87
2024/01/16 08:59:55;;;;;;;;;;;1.70;99.90;;;;;;5014993;28;20024;-86
2024/01/16 09:02:21;;;;;;;;;;;1.50;99.90;;;;;;5036461;28;20004;-87
2024/01/16 09:04:47;;;;;;;;;;;0.10;99.90;;;;;;5010761;28;19967;-87
2024/01/16 09:07:15;;;;;;;;;;;0.20;99.90;;;;;;5003763;28;19928;-88
2024/01/16 09:09:42;;;;;;;;;;;2.10;99.90;;;;;;5015295;28;19921;-88
2024/01/16 09:12:08;;;;;;;;;;;2.00;99.90;;;;;;5033533;28;20039;-87
2024/01/16 09:14:34;;;;;;;;;;;0.30;99.90;;;;;;4996994;28;19979;-86
2024/01/16 09:16:59;;;;;;;;;;;0.30;99.90;;;;;;5002248;28;20015;-85
2024/01/16 09:19:25;;;;;;;;;;;1.30;99.90;;;;;;5021913;28;19929;-86
2024/01/16 09:21:50;;;;;;;;;;;1.60;99.90;;;;;;5002436;28;19925;-86
2024/01/16 09:24:16;;;;;;;;;;;2.50;99.90;;;;;;5016583;28;19927;-86
2024/01/16 09:26:42;;;;;;;;;;;0.90;99.90;;;;;;5000411;28;19951;-86
2024/01/16 09:29:09;;;;;;;;;;;0.40;99.90;;;;;;5017395;28;19922;-87
2024/01/16 09:31:35;;;;;;;;;;;0.60;99.90;;;;;;5015118;28;20012;-86
2024/01/16 09:34:01;;;;;;;;;;;2.00;99.90;;;;;;4992310;28;20253;-87
2024/01/16 09:36:27;;;;;;;;;;;0.70;99.90;;;;;;5019683;28;19956;-86
2024/01/16 09:38:52;;;;;;;;;;;1.40;99.90;;;;;;5016179;28;19972;-86
2024/01/16 09:41:18;;;;;;;;;;;2.50;99.90;;;;;;5003486;28;20024;-87
2024/01/16 09:43:44;;;;;;;;;;;2.90;99.90;;;;;;5000025;28;19921;-86
2024/01/16 09:46:10;;;;;;;;;;;0.80;99.90;;;;;;5014465;28;19925;-86
2024/01/16 09:48:36;;;;;;;;;;;1.90;99.90;;;;;;5002430;28;19921;-85
2024/01/16 09:51:02;;;;;;;;;;;1.20;99.90;;;;;;5018503;28;20396;-86
2024/01/16 09:53:27;;;;;;;;;;;0.90;99.90;;;;;;5011562;28;19921;-86
2024/01/16 09:55:54;;;;;;;;;;;0.90;99.90;;;;;;4995677;28;19948;-86
2024/01/16 09:58:20;;;;;;;;;;;1.90;99.90;;;;;;5000947;28;20402;-86
2024/01/16 10:00:46;;;;;;;;;;;0.80;99.90;;;;;;5010874;28;19982;-85
2024/01/16 10:03:12;;;;;;;;;;;1.50;99.90;;;;;;5022993;28;20008;-86
2024/01/16 10:05:40;;;;;;;;;;;1.50;99.90;;;;;;5015424;28;19925;-87
2024/01/16 10:08:07;;;;;;;;;;;1.10;99.90;;;;;;5012861;28;19928;-86
2024/01/16 10:10:33;;;;;;;;;;;0.80;99.90;;;;;;5008004;28;19924;-86
2024/01/16 10:12:59;;;;;;;;;;;2.30;99.90;;;;;;5009436;28;19928;-86
2024/01/16 10:15:25;;;;;;;;;;;2.70;99.90;;;;;;5009180;28;19929;-86
2024/01/16 10:17:50;;;;;;;;;;;0.90;99.90;;;;;;4997928;28;19925;-86
2024/01/16 10:20:31;;;;;;;;;;;1.80;99.90;;;;;;5015784;28;19922;-86
2024/01/16 10:22:58;;;;;;;;;;;1.80;99.90;;;;;;5016991;28;20384;-86
2024/01/16 10:25:24;;;;;;;;;;;2.60;99.90;;;;;;5016415;28;19926;-86
2024/01/16 10:28:02;;;;;;;;;;;1.00;99.90;;;;;;5032475;28;19967;-86
2024/01/16 10:30:27;;;;;;;;;;;1.50;99.90;;;;;;5033001;28;20127;-86
2024/01/16 10:32:53;;;;;;;;;;;1.80;99.90;;;;;;4997029;28;19921;-86
2024/01/16 10:35:20;;;;;;;;;;;2.10;99.90;;;;;;5014081;28;19921;-86
2024/01/16 10:37:47;;;;;;;;;;;2.50;99.90;;;;;;5008972;28;19921;-86
2024/01/16 10:40:25;;;;;;;;;;;2.60;99.90;;;;;;5015232;28;20377;-85
2024/01/16 10:42:57;;;;;;;;;;;1.00;99.90;;;;;;5010928;28;19928;-85
2024/01/16 10:45:23;;;;;;;;;;;1.00;99.90;;;;;;5030924;28;20028;-85
2024/01/16 10:48:05;;;;;;;;;;;2.20;99.90;;;;;;5014019;28;19987;-86
2024/01/16 10:50:31;;;;;;;;;;;1.00;99.90;;;;;;5029100;28;19921;-85
2024/01/16 10:52:59;;;;;;;;;;;1.20;99.90;;;;;;5001928;28;19925;-85
2024/01/16 10:55:27;;;;;;;;;;;1.40;99.90;;;;;;5039416;28;19925;-85
2024/01/16 10:57:55;;;;;;;;;;;1.80;99.90;;;;;;5018682;28;19921;-86
2024/01/16 11:00:21;;;;;;;;;;;3.00;99.90;;;;;;5016265;28;19924;-85
2024/01/16 11:03:13;;;;;;;;;;;1.30;99.90;;;;;;5011181;28;20383;-86
2024/01/16 11:05:39;;;;;;;;;;;1.00;99.90;;;;;;5017249;28;20392;-86
2024/01/16 11:08:05;;;;;;;;;;;1.00;99.90;;;;;;5016848;28;19925;-86
2024/01/16 11:10:32;;;;;;;;;;;1.00;99.90;;;;;;4999503;28;19944;-85
2024/01/16 11:12:59;;;;;;;;;;;1.50;99.90;;;;;;5016467;28;20015;-85
2024/01/16 11:15:25;;;;;;;;;;;2.00;99.90;;;;;;5006677;28;19926;-85
2024/01/16 11:17:52;;;;;;;;;;;2.90;99.90;;;;;;5006719;28;20440;-85
2024/01/16 11:20:18;;;;;;;;;;;0.90;99.90;;;;;;5016076;28;20027;-84
2024/01/16 11:22:45;;;;;;;;;;;0.90;99.90;;;;;;5033281;28;19925;-85
2024/01/16 11:25:11;;;;;;;;;;;0.90;99.90;;;;;;5032845;28;19979;-85
2024/01/16 11:27:38;;;;;;;;;;;2.20;99.90;;;;;;5015504;28;19928;-84
2024/01/16 11:30:04;;;;;;;;;;;0.90;99.90;;;;;;5003022;28;19928;-85
2024/01/16 11:32:37;;;;;;;;;;;0.90;99.90;;;;;;5015104;28;20332;-85
2024/01/16 11:35:04;;;;;;;;;;;0.90;99.90;;;;;;5023760;28;20262;-89
2024/01/16 11:37:32;;;;;;;;;;;0.90;99.90;;;;;;5021982;28;20008;-89
2024/01/16 11:40:16;;;;;;;;;;;0.90;99.90;;;;;;5002020;28;19967;-84
2024/01/16 11:42:43;;;;;;;;;;;1.00;99.90;;;;;;5020050;28;19921;-84
2024/01/16 11:45:31;;;;;;;;;;;1.00;99.90;;;;;;5016324;28;19933;-84
2024/01/16 11:48:09;;;;;;;;;;;1.00;99.90;;;;;;5021662;28;19921;-85
2024/01/16 11:50:35;;;;;;;;;;;0.90;99.90;;;;;;5014312;28;19924;-85
2024/01/16 11:53:01;;;;;;;;;;;2.20;99.90;;;;;;4996505;28;19940;-84
2024/01/16 11:55:31;;;;;;;;;;;1.00;99.90;;;;;;5013456;28;20319;-84
2024/01/16 11:57:56;;;;;;;;;;;1.10;99.90;;;;;;5003861;28;19921;-84
2024/01/16 12:00:24;;;;;;;;;;;1.60;99.90;;;;;;5020128;28;19943;-84
2024/01/16 12:02:51;;;;;;;;;;;2.80;99.90;;;;;;5005806;28;20289;-85
2024/01/16 12:05:16;;;;;;;;;;;2.00;99.90;;;;;;5045524;28;19926;-84
2024/01/16 12:07:49;;;;;;;;;;;1.70;99.90;;;;;;4997645;28;19929;-89
2024/01/16 12:10:15;;;;;;;;;;;2.70;99.90;;;;;;5030714;28;19987;-85
2024/01/16 12:12:41;;;;;;;;;;;1.10;99.90;;;;;;5050171;28;19956;-84
2024/01/16 12:15:06;;;;;;;;;;;1.10;99.90;;;;;;4999687;28;19928;-85
2024/01/16 12:17:32;;;;;;;;;;;1.20;99.90;;;;;;4999135;28;20377;-85
2024/01/16 12:19:58;;;;;;;;;;;2.90;99.90;;;;;;5010565;28;19921;-87
2024/01/16 12:22:23;;;;;;;;;;;1.50;99.90;;;;;;5015406;28;20297;-85
2024/01/16 12:24:49;;;;;;;;;;;3.00;99.90;;;;;;5007368;28;19921;-86
2024/01/16 12:27:15;;;;;;;;;;;2.40;99.90;;;;;;5013366;28;19921;-86
2024/01/16 12:29:41;;;;;;;;;;;3.30;99.90;;;;;;5011799;28;19921;-85
2024/01/16 12:32:07;;;;;;;;;;;1.30;99.90;;;;;;4981567;28;19922;-85
2024/01/16 12:34:33;;;;;;;;;;;1.30;99.90;;;;;;5016417;28;19921;-86
2024/01/16 12:37:08;;;;;;;;;;;3.30;99.90;;;;;;5012124;28;19921;-85
2024/01/16 12:39:35;;;;;;;;;;;1.50;99.90;;;;;;4998865;28;19971;-85
2024/01/16 12:42:01;;;;;;;;;;;1.50;99.90;;;;;;5016665;28;19921;-85
2024/01/16 12:44:27;;;;;;;;;;;1.70;99.90;;;;;;5035421;28;19952;-85
2024/01/16 12:46:56;;;;;;;;;;;1.50;99.90;;;;;;5032351;28;19925;-86
2024/01/16 12:49:22;;;;;;;;;;;1.60;99.90;;;;;;5031839;28;19921;-85
2024/01/16 12:51:49;;;;;;;;;;;0.80;99.90;;;;;;5018392;28;19928;-85
2024/01/16 12:54:15;;;;;;;;;;;2.00;99.90;;;;;;4998830;28;19972;-86
2024/01/16 12:56:41;;;;;;;;;;;2.40;99.90;;;;;;5000810;28;19982;-86
2024/01/16 12:59:13;;;;;;;;;;;4.60;99.90;;;;;;5001535;28;20368;-86
2024/01/16 13:01:42;;;;;;;;;;;3.10;99.90;;;;;;5018904;28;19921;-88
2024/01/16 13:04:08;;;;;;;;;;;3.00;99.90;;;;;;5020425;28;20012;-87
2024/01/16 13:06:33;;;;;;;;;;;4.20;99.90;;;;;;5016954;28;20012;-88
2024/01/16 13:09:10;;;;;;;;;;;4.50;99.90;;;;;;4999236;28;19925;-85
2024/01/16 13:11:45;;;;;;;;;;;2.90;99.90;;;;;;5020853;28;19948;-85
2024/01/16 13:14:11;;;;;;;;;;;3.00;99.90;;;;;;5019021;28;19921;-86
2024/01/16 13:16:36;;;;;;;;;;;3.20;99.90;;;;;;5023156;28;19927;-86
2024/01/16 13:19:04;;;;;;;;;;;3.20;99.90;;;;;;5003033;28;19925;-85
2024/01/16 13:21:29;;;;;;;;;;;3.20;99.90;;;;;;5037557;28;19983;-85
2024/01/16 13:23:55;;;;;;;;;;;3.20;99.90;;;;;;5035705;28;19925;-85
2024/01/16 13:26:20;;;;;;;;;;;3.10;99.90;;;;;;5019007;28;19925;-85
2024/01/16 13:28:47;;;;;;;;;;;3.20;99.90;;;;;;5002607;28;20444;-84
2024/01/16 13:31:13;;;;;;;;;;;3.30;99.90;;;;;;4996060;28;19932;-85
2024/01/16 13:33:38;;;;;;;;;;;3.60;99.90;;;;;;5035111;28;19920;-85
2024/01/16 13:36:04;;;;;;;;;;;4.40;99.90;;;;;;4999497;28;19925;-85
2024/01/16 13:38:30;;;;;;;;;;;3.80;99.90;;;;;;5019310;28;19921;-84
2024/01/16 13:40:55;;;;;;;;;;;3.80;99.90;;;;;;5003710;28;20373;-85
2024/01/16 13:43:21;;;;;;;;;;;4.30;99.90;;;;;;5019592;28;19921;-84
2024/01/16 13:45:50;;;;;;;;;;;4.10;99.90;;;;;;5001178;28;20428;-85
2024/01/16 13:48:17;;;;;;;;;;;4.60;99.90;;;;;;5015955;28;20032;-85
2024/01/16 13:50:42;;;;;;;;;;;5.20;99.90;;;;;;5017127;28;19964;-85
2024/01/16 13:53:08;;;;;;;;;;;5.40;99.90;;;;;;5018856;28;19932;-85
2024/01/16 13:55:34;;;;;;;;;;;5.00;99.90;;;;;;4998660;28;19926;-86
2024/01/16 13:58:00;;;;;;;;;;;4.70;99.90;;;;;;5018474;28;19927;-84
2024/01/16 14:00:25;;;;;;;;;;;4.90;99.90;;;;;;5001800;28;19936;-85
2024/01/16 14:02:51;;;;;;;;;;;5.50;99.90;;;;;;5001003;28;19925;-88
2024/01/16 14:05:18;;;;;;;;;;;5.50;99.90;;;;;;5006190;28;19909;-84
2024/01/16 14:07:47;;;;;;;;;;;6.10;99.90;;;;;;5001881;28;19925;-85
2024/01/16 14:10:16;;;;;;;;;;;7.30;99.90;;;;;;5016825;28;20011;-85
2024/01/16 14:12:43;;;;;;;;;;;6.60;99.90;;;;;;5039705;28;20272;-85
2024/01/16 14:15:15;;;;;;;;;;;6.50;99.90;;;;;;5034879;28;19925;-85
2024/01/16 14:17:54;;;;;;;;;;;6.00;99.90;;;;;;5034644;28;19953;-85
2024/01/16 14:20:23;;;;;;;;;;;5.50;99.90;;;;;;5034305;28;20407;-86
2024/01/16 14:22:49;;;;;;;;;;;4.80;99.90;;;;;;5001782;28;20385;-85